Time;durP1;ratioP1;P1;durP2;ratioP2;P2;SDS_P1;SDS_P2;PMS_P1;PMS_P2;Temp;Humidity;BMP_temperature;BMP_pressure;BME280_temperature;BME280_humidity;BME280_pressure;Samples;Min_cycle;Max_cycle;Signal;HPM_P1;HPM_P2
2021/06/12 00:00:19;;;;;;;;;;;;;;;;;;5010665;28;19909;-76
2021/06/12 00:02:45;;;;;;;;;;;;;;;;;;5004879;28;19934;-76
2021/06/12 00:05:11;;;;;;;;;;;;;;;;;;5004357;28;19976;-76
2021/06/12 00:07:37;;;;;;;;;;;;;;;;;;5009005;28;20447;-77
2021/06/12 00:10:03;;;;;;;;;;;;;;;;;;5011305;28;19916;-76
2021/06/12 00:12:28;;;;;;;;;;;;;;;;;;5003453;28;20331;-76
2021/06/12 00:14:54;;;;;;;;;;;;;;;;;;5004690;28;19921;-76
2021/06/12 00:17:20;;;;;;;;;;;;;;;;;;5002820;28;20394;-76
2021/06/12 00:19:46;;;;;;;;;;;;;;;;;;5003226;28;19909;-76
2021/06/12 00:22:12;;;;;;;;;;;;;;;;;;5006217;28;20392;-76
2021/06/12 00:24:38;;;;;;;;;;;;;;;;;;5011599;28;19917;-76
2021/06/12 00:27:04;;;;;;;;;;;;;;;;;;5006363;28;20304;-76
2021/06/12 00:29:30;;;;;;;;;;;;;;;;;;5005614;28;19917;-76
2021/06/12 00:31:56;;;;;;;;;;;;;;;;;;5003923;28;20288;-76
2021/06/12 00:34:21;;;;;;;;;;;;;;;;;;5006480;28;19913;-76
2021/06/12 00:36:47;;;;;;;;;;;;;;;;;;5001325;28;20274;-77
2021/06/12 00:39:13;;;;;;;;;;;;;;;;;;5011103;28;20359;-76
2021/06/12 00:41:39;;;;;;;;;;;;;;;;;;5004176;28;19960;-76
2021/06/12 00:44:05;;;;;;;;;;;;;;;;;;5004059;28;19914;-76
2021/06/12 00:46:31;;;;;;;;;;;;;;;;;;5012696;28;19910;-76
2021/06/12 00:48:57;;;;;;;;;;;;;;;;;;5007049;28;19909;-76
2021/06/12 00:51:23;;;;;;;;;;;;;;;;;;5008307;28;20055;-76
2021/06/12 00:53:49;;;;;;;;;;;;;;;;;;5009760;28;20380;-77
2021/06/12 00:56:15;;;;;;;;;;;;;;;;;;5010593;28;19913;-76
2021/06/12 00:58:43;;;;;;;;;;;;;;;;;;5009647;28;19917;-76
2021/06/12 01:01:09;;;;;;;;;;;;;;;;;;5008223;28;20304;-76
2021/06/12 01:03:35;;;;;;;;;;;;;;;;;;4992149;28;19910;-76
2021/06/12 01:06:01;;;;;;;;;;;;;;;;;;4995417;28;19920;-76
2021/06/12 01:08:27;;;;;;;;;;;;;;;;;;5008922;28;19909;-76
2021/06/12 01:10:53;;;;;;;;;;;;;;;;;;5014918;28;20407;-76
2021/06/12 01:13:19;;;;;;;;;;;;;;;;;;5011486;28;19917;-76
2021/06/12 01:15:50;;;;;;;;;;;;;;;;;;5008230;28;19952;-76
2021/06/12 01:18:15;;;;;;;;;;;;;;;;;;5008302;28;19963;-76
2021/06/12 01:20:41;;;;;;;;;;;;;;;;;;5012139;28;19910;-77
2021/06/12 01:23:07;;;;;;;;;;;;;;;;;;5008564;28;20431;-76
2021/06/12 01:25:33;;;;;;;;;;;;;;;;;;5008801;28;20008;-76
2021/06/12 01:27:59;;;;;;;;;;;;;;;;;;5014707;28;19918;-76
2021/06/12 01:30:25;;;;;;;;;;;;;;;;;;5009713;28;19906;-76
2021/06/12 01:32:51;;;;;;;;;;;;;;;;;;5006485;28;20368;-76
2021/06/12 01:35:17;;;;;;;;;;;;;;;;;;5007969;28;19913;-76
2021/06/12 01:37:43;;;;;;;;;;;;;;;;;;4992745;28;20289;-76
2021/06/12 01:40:09;;;;;;;;;;;;;;;;;;5010117;28;19917;-76
2021/06/12 01:42:34;;;;;;;;;;;;;;;;;;5007553;28;19970;-76
2021/06/12 01:45:00;;;;;;;;;;;;;;;;;;5006113;28;19920;-76
2021/06/12 01:47:26;;;;;;;;;;;;;;;;;;5003636;28;19916;-76
2021/06/12 01:49:52;;;;;;;;;;;;;;;;;;5009636;28;19909;-76
2021/06/12 01:52:18;;;;;;;;;;;;;;;;;;4993280;28;20074;-76
2021/06/12 01:54:44;;;;;;;;;;;;;;;;;;5004149;28;19955;-76
2021/06/12 01:57:10;;;;;;;;;;;;;;;;;;5003741;28;19921;-76
2021/06/12 01:59:36;;;;;;;;;;;;;;;;;;5008382;28;19917;-76
2021/06/12 02:02:01;;;;;;;;;;;;;;;;;;5009926;28;19944;-76
2021/06/12 02:04:27;;;;;;;;;;;;;;;;;;4989904;28;19920;-76
2021/06/12 02:06:55;;;;;;;;;;;;;;;;;;5010055;28;19910;-76
2021/06/12 02:09:21;;;;;;;;;;;;;;;;;;5010845;28;19909;-76
2021/06/12 02:11:47;;;;;;;;;;;;;;;;;;5005659;28;19920;-76
2021/06/12 02:14:13;;;;;;;;;;;;;;;;;;5009325;28;20294;-76
2021/06/12 02:16:39;;;;;;;;;;;;;;;;;;5008389;28;19917;-76
2021/06/12 02:19:04;;;;;;;;;;;;;;;;;;5007812;28;19918;-77
2021/06/12 02:21:30;;;;;;;;;;;;;;;;;;5006809;28;21055;-76
2021/06/12 02:23:56;;;;;;;;;;;;;;;;;;5015732;28;19916;-76
2021/06/12 02:26:22;;;;;;;;;;;;;;;;;;4994605;28;20442;-76
2021/06/12 02:28:48;;;;;;;;;;;;;;;;;;5007019;28;19926;-76
2021/06/12 02:31:14;;;;;;;;;;;;;;;;;;5012540;28;20277;-76
2021/06/12 02:33:40;;;;;;;;;;;;;;;;;;5007509;28;19992;-76
2021/06/12 02:36:06;;;;;;;;;;;;;;;;;;5009930;28;20320;-76
2021/06/12 02:38:31;;;;;;;;;;;;;;;;;;5009821;28;19913;-76
2021/06/12 02:40:57;;;;;;;;;;;;;;;;;;5013503;28;20404;-76
2021/06/12 02:43:23;;;;;;;;;;;;;;;;;;5006061;28;19935;-76
2021/06/12 02:45:49;;;;;;;;;;;;;;;;;;5009055;28;20373;-76
2021/06/12 02:48:15;;;;;;;;;;;;;;;;;;4992185;28;19910;-77
2021/06/12 02:50:41;;;;;;;;;;;;;;;;;;5011071;28;19914;-76
2021/06/12 02:53:07;;;;;;;;;;;;;;;;;;5007245;28;19909;-77
2021/06/12 02:55:33;;;;;;;;;;;;;;;;;;5008241;28;20310;-76
2021/06/12 02:57:59;;;;;;;;;;;;;;;;;;5008844;28;19913;-76
2021/06/12 03:00:25;;;;;;;;;;;;;;;;;;4988857;28;19918;-76
2021/06/12 03:02:50;;;;;;;;;;;;;;;;;;5010536;28;19909;-76
2021/06/12 03:05:16;;;;;;;;;;;;;;;;;;5010601;28;20403;-75
2021/06/12 03:07:42;;;;;;;;;;;;;;;;;;4989918;28;19914;-76
2021/06/12 03:10:08;;;;;;;;;;;;;;;;;;5008587;28;19914;-76
2021/06/12 03:12:34;;;;;;;;;;;;;;;;;;5006467;28;19909;-75
2021/06/12 03:15:00;;;;;;;;;;;;;;;;;;5000179;28;20364;-76
2021/06/12 03:17:26;;;;;;;;;;;;;;;;;;4985165;28;19952;-76
2021/06/12 03:19:52;;;;;;;;;;;;;;;;;;5005587;28;19963;-77
2021/06/12 03:22:18;;;;;;;;;;;;;;;;;;5008189;28;19916;-76
2021/06/12 03:24:43;;;;;;;;;;;;;;;;;;5003609;28;19963;-76
2021/06/12 03:27:09;;;;;;;;;;;;;;;;;;5009769;28;19916;-76
2021/06/12 03:29:35;;;;;;;;;;;;;;;;;;5005411;28;19909;-76
2021/06/12 03:32:01;;;;;;;;;;;;;;;;;;4998855;28;20192;-76
2021/06/12 03:34:27;;;;;;;;;;;;;;;;;;5004372;28;20295;-76
2021/06/12 03:36:53;;;;;;;;;;;;;;;;;;5005113;28;20008;-76
2021/06/12 03:39:19;;;;;;;;;;;;;;;;;;5002442;28;19949;-76
2021/06/12 03:41:45;;;;;;;;;;;;;;;;;;5005771;28;19921;-76
2021/06/12 03:44:11;;;;;;;;;;;;;;;;;;5009458;28;19913;-76
2021/06/12 03:46:36;;;;;;;;;;;;;;;;;;5006800;28;19910;-76
2021/06/12 03:49:02;;;;;;;;;;;;;;;;;;5006173;28;19910;-77
2021/06/12 03:51:28;;;;;;;;;;;;;;;;;;4996060;28;19917;-76
2021/06/12 03:53:54;;;;;;;;;;;;;;;;;;5005066;28;20650;-76
2021/06/12 03:56:20;;;;;;;;;;;;;;;;;;5010064;28;19909;-75
2021/06/12 03:58:46;;;;;;;;;;;;;;;;;;5005573;28;20358;-76
2021/06/12 04:01:12;;;;;;;;;;;;;;;;;;5011498;28;20111;-75
2021/06/12 04:03:38;;;;;;;;;;;;;;;;;;5004354;28;19931;-76
2021/06/12 04:06:04;;;;;;;;;;;;;;;;;;4991833;28;20004;-76
2021/06/12 04:08:30;;;;;;;;;;;;;;;;;;5007014;28;19971;-76
2021/06/12 04:10:56;;;;;;;;;;;;;;;;;;5006229;28;19916;-76
2021/06/12 04:13:21;;;;;;;;;;;;;;;;;;5007061;28;19917;-76
2021/06/12 04:15:47;;;;;;;;;;;;;;;;;;4994040;28;20301;-76
2021/06/12 04:18:13;;;;;;;;;;;;;;;;;;5002241;28;19909;-76
2021/06/12 04:20:39;;;;;;;;;;;;;;;;;;5007438;28;20396;-76
2021/06/12 04:23:05;;;;;;;;;;;;;;;;;;5013803;28;19925;-76
2021/06/12 04:25:31;;;;;;;;;;;;;;;;;;5012044;28;19920;-76
2021/06/12 04:27:57;;;;;;;;;;;;;;;;;;5006688;28;20293;-77
2021/06/12 04:30:23;;;;;;;;;;;;;;;;;;5010727;28;19932;-76
2021/06/12 04:32:49;;;;;;;;;;;;;;;;;;5011103;28;19921;-76
2021/06/12 04:35:15;;;;;;;;;;;;;;;;;;5007452;28;19971;-76
2021/06/12 04:37:40;;;;;;;;;;;;;;;;;;5011951;28;19920;-76
2021/06/12 04:40:06;;;;;;;;;;;;;;;;;;4992660;28;20012;-76
2021/06/12 04:42:32;;;;;;;;;;;;;;;;;;5005550;28;19948;-77
2021/06/12 04:44:58;;;;;;;;;;;;;;;;;;5009059;28;20123;-76
2021/06/12 04:47:24;;;;;;;;;;;;;;;;;;5009484;28;20285;-76
2021/06/12 04:49:50;;;;;;;;;;;;;;;;;;5009439;28;19949;-76
2021/06/12 04:52:16;;;;;;;;;;;;;;;;;;5012964;28;19979;-76
2021/06/12 04:54:42;;;;;;;;;;;;;;;;;;5012445;28;19956;-76
2021/06/12 04:57:08;;;;;;;;;;;;;;;;;;5010660;28;19913;-76
2021/06/12 04:59:33;;;;;;;;;;;;;;;;;;5005110;28;19989;-76
2021/06/12 05:01:59;;;;;;;;;;;;;;;;;;5011298;28;20351;-76
2021/06/12 05:04:25;;;;;;;;;;;;;;;;;;5015574;28;19967;-76
2021/06/12 05:06:51;;;;;;;;;;;;;;;;;;5007228;28;19915;-76
2021/06/12 05:09:17;;;;;;;;;;;;;;;;;;5011642;28;20394;-76
2021/06/12 05:11:43;;;;;;;;;;;;;;;;;;5012824;28;20005;-76
2021/06/12 05:14:09;;;;;;;;;;;;;;;;;;5009000;28;19913;-76
2021/06/12 05:16:36;;;;;;;;;;;;;;;;;;5006927;28;19916;-76
2021/06/12 05:19:02;;;;;;;;;;;;;;;;;;5011865;28;20369;-77
2021/06/12 05:21:28;;;;;;;;;;;;;;;;;;5009364;28;19920;-76
2021/06/12 05:23:54;;;;;;;;;;;;;;;;;;5007248;28;19917;-76
2021/06/12 05:26:19;;;;;;;;;;;;;;;;;;5009848;28;19917;-76
2021/06/12 05:28:45;;;;;;;;;;;;;;;;;;5009801;28;19933;-76
2021/06/12 05:31:11;;;;;;;;;;;;;;;;;;5008679;28;20368;-76
2021/06/12 05:33:37;;;;;;;;;;;;;;;;;;5012281;28;19909;-77
2021/06/12 05:36:03;;;;;;;;;;;;;;;;;;5004318;28;19913;-76
2021/06/12 05:38:29;;;;;;;;;;;;;;;;;;5005682;28;19965;-77
2021/06/12 05:40:55;;;;;;;;;;;;;;;;;;5010262;28;19916;-76
2021/06/12 05:43:21;;;;;;;;;;;;;;;;;;5010675;28;19964;-76
2021/06/12 05:45:47;;;;;;;;;;;;;;;;;;5014016;28;19913;-77
2021/06/12 05:48:12;;;;;;;;;;;;;;;;;;5007376;28;19917;-76
2021/06/12 05:50:38;;;;;;;;;;;;;;;;;;5004423;28;19949;-77
2021/06/12 05:53:04;;;;;;;;;;;;;;;;;;5010325;28;19909;-76
2021/06/12 05:55:30;;;;;;;;;;;;;;;;;;5007263;28;19913;-77
2021/06/12 05:57:56;;;;;;;;;;;;;;;;;;5010638;28;19909;-75
2021/06/12 06:00:22;;;;;;;;;;;;;;;;;;5012707;28;19997;-77
2021/06/12 06:02:48;;;;;;;;;;;;;;;;;;5002830;28;19972;-76
2021/06/12 06:05:14;;;;;;;;;;;;;;;;;;4996357;28;19917;-76
2021/06/12 06:07:40;;;;;;;;;;;;;;;;;;5003595;28;20530;-76
2021/06/12 06:10:05;;;;;;;;;;;;;;;;;;5006522;28;19910;-77
2021/06/12 06:12:33;;;;;;;;;;;;;;;;;;5004285;28;19914;-76
2021/06/12 06:14:59;;;;;;;;;;;;;;;;;;5011434;28;20273;-75
2021/06/12 06:17:25;;;;;;;;;;;;;;;;;;4993099;28;19916;-77
2021/06/12 06:19:51;;;;;;;;;;;;;;;;;;5006728;28;19917;-77
2021/06/12 06:22:17;;;;;;;;;;;;;;;;;;5014704;28;20038;-75
2021/06/12 06:24:43;;;;;;;;;;;;;;;;;;5006620;28;19916;-77
2021/06/12 06:27:08;;;;;;;;;;;;;;;;;;5010305;28;19923;-76
2021/06/12 06:29:34;;;;;;;;;;;;;;;;;;4994792;28;19909;-75
2021/06/12 06:32:00;;;;;;;;;;;;;;;;;;5009579;28;19909;-77
2021/06/12 06:34:26;;;;;;;;;;;;;;;;;;5005068;28;19921;-77
2021/06/12 06:36:52;;;;;;;;;;;;;;;;;;5010830;28;20303;-76
2021/06/12 06:39:18;;;;;;;;;;;;;;;;;;5007858;28;20271;-77
2021/06/12 06:41:44;;;;;;;;;;;;;;;;;;5009107;28;20000;-77
2021/06/12 06:44:10;;;;;;;;;;;;;;;;;;4988830;28;19917;-77
2021/06/12 06:46:36;;;;;;;;;;;;;;;;;;5012248;28;20844;-77
2021/06/12 06:49:01;;;;;;;;;;;;;;;;;;5004711;28;19921;-77
2021/06/12 06:51:27;;;;;;;;;;;;;;;;;;5008277;28;19956;-76
2021/06/12 06:53:53;;;;;;;;;;;;;;;;;;5008899;28;19917;-76
2021/06/12 06:56:19;;;;;;;;;;;;;;;;;;5010769;28;20047;-76
2021/06/12 06:58:45;;;;;;;;;;;;;;;;;;5003928;28;20404;-76
2021/06/12 07:01:11;;;;;;;;;;;;;;;;;;5012052;28;19931;-77
2021/06/12 07:03:37;;;;;;;;;;;;;;;;;;5015628;28;19909;-76
2021/06/12 07:06:03;;;;;;;;;;;;;;;;;;5013371;28;20364;-77
2021/06/12 07:08:29;;;;;;;;;;;;;;;;;;5007811;28;19914;-77
2021/06/12 07:10:55;;;;;;;;;;;;;;;;;;5007183;28;19919;-77
2021/06/12 07:13:21;;;;;;;;;;;;;;;;;;5008790;28;19999;-77
2021/06/12 07:15:47;;;;;;;;;;;;;;;;;;5005714;28;19920;-76
2021/06/12 07:18:13;;;;;;;;;;;;;;;;;;5011769;28;19909;-77
2021/06/12 07:20:38;;;;;;;;;;;;;;;;;;5004003;28;20404;-77
2021/06/12 07:23:04;;;;;;;;;;;;;;;;;;5005802;28;19909;-77
2021/06/12 07:25:30;;;;;;;;;;;;;;;;;;5010108;28;19963;-76
2021/06/12 07:27:56;;;;;;;;;;;;;;;;;;5008637;28;19909;-78
2021/06/12 07:30:22;;;;;;;;;;;;;;;;;;5010278;28;19913;-78
2021/06/12 07:32:48;;;;;;;;;;;;;;;;;;5007979;28;19909;-77
2021/06/12 07:35:14;;;;;;;;;;;;;;;;;;5006800;28;20029;-77
2021/06/12 07:37:40;;;;;;;;;;;;;;;;;;5003000;28;20013;-77
2021/06/12 07:40:06;;;;;;;;;;;;;;;;;;5003231;28;19996;-76
2021/06/12 07:42:32;;;;;;;;;;;;;;;;;;5003335;28;19909;-78
2021/06/12 07:44:58;;;;;;;;;;;;;;;;;;5007903;28;19910;-77
2021/06/12 07:47:24;;;;;;;;;;;;;;;;;;4987978;28;19936;-77
2021/06/12 07:49:50;;;;;;;;;;;;;;;;;;5006935;28;19910;-77
2021/06/12 07:52:15;;;;;;;;;;;;;;;;;;5007924;28;20932;-78
2021/06/12 07:54:41;;;;;;;;;;;;;;;;;;5008937;28;20007;-78
2021/06/12 07:57:07;;;;;;;;;;;;;;;;;;5004531;28;19916;-77
2021/06/12 07:59:33;;;;;;;;;;;;;;;;;;5013555;28;19909;-77
2021/06/12 08:01:59;;;;;;;;;;;;;;;;;;5013520;28;19928;-77
2021/06/12 08:04:25;;;;;;;;;;;;;;;;;;5014766;28;20300;-78
2021/06/12 08:06:51;;;;;;;;;;;;;;;;;;5007185;28;19992;-78
2021/06/12 08:09:18;;;;;;;;;;;;;;;;;;5009839;28;20352;-78
2021/06/12 08:11:44;;;;;;;;;;;;;;;;;;4987586;28;19925;-77
2021/06/12 08:14:10;;;;;;;;;;;;;;;;;;4998951;28;19910;-78
2021/06/12 08:16:36;;;;;;;;;;;;;;;;;;4990444;28;19917;-76
2021/06/12 08:19:02;;;;;;;;;;;;;;;;;;4993724;28;20056;-76
2021/06/12 08:21:28;;;;;;;;;;;;;;;;;;5005978;28;19932;-77
2021/06/12 08:23:54;;;;;;;;;;;;;;;;;;5010655;28;19921;-77
2021/06/12 08:26:20;;;;;;;;;;;;;;;;;;5006887;28;19909;-76
2021/06/12 08:28:46;;;;;;;;;;;;;;;;;;5006342;28;19940;-76
2021/06/12 08:31:12;;;;;;;;;;;;;;;;;;4991706;28;19909;-76
2021/06/12 08:33:38;;;;;;;;;;;;;;;;;;5008257;28;19956;-78
2021/06/12 08:36:04;;;;;;;;;;;;;;;;;;5006144;28;19913;-77
2021/06/12 08:38:30;;;;;;;;;;;;;;;;;;5003969;28;19914;-75
2021/06/12 08:40:56;;;;;;;;;;;;;;;;;;5006572;28;20266;-76
2021/06/12 08:43:22;;;;;;;;;;;;;;;;;;5008040;28;19963;-78
2021/06/12 08:45:48;;;;;;;;;;;;;;;;;;5014545;28;19917;-77
2021/06/12 08:48:16;;;;;;;;;;;;;;;;;;5010636;28;20375;-77
2021/06/12 08:50:42;;;;;;;;;;;;;;;;;;5005108;28;19910;-75
2021/06/12 08:53:08;;;;;;;;;;;;;;;;;;5005665;28;19975;-77
2021/06/12 08:55:34;;;;;;;;;;;;;;;;;;5009755;28;19984;-76
2021/06/12 08:58:00;;;;;;;;;;;;;;;;;;5005052;28;19921;-77
2021/06/12 09:00:26;;;;;;;;;;;;;;;;;;5009082;28;20483;-77
2021/06/12 09:02:51;;;;;;;;;;;;;;;;;;5004408;28;19972;-77
2021/06/12 09:05:17;;;;;;;;;;;;;;;;;;5006198;28;20463;-77
2021/06/12 09:07:45;;;;;;;;;;;;;;;;;;5002732;28;19925;-76
2021/06/12 09:10:10;;;;;;;;;;;;;;;;;;5007448;28;19910;-76
2021/06/12 09:12:36;;;;;;;;;;;;;;;;;;5007644;28;19915;-77
2021/06/12 09:15:02;;;;;;;;;;;;;;;;;;5003108;28;19940;-77
2021/06/12 09:17:28;;;;;;;;;;;;;;;;;;5010049;28;19948;-76
2021/06/12 09:19:54;;;;;;;;;;;;;;;;;;5007957;28;19916;-76
2021/06/12 09:22:20;;;;;;;;;;;;;;;;;;5008430;28;19913;-78
2021/06/12 09:24:49;;;;;;;;;;;;;;;;;;4992433;28;19917;-77
2021/06/12 09:27:17;;;;;;;;;;;;;;;;;;5009517;28;19910;-78
2021/06/12 09:29:43;;;;;;;;;;;;;;;;;;5007254;28;19917;-77
2021/06/12 09:32:09;;;;;;;;;;;;;;;;;;5013286;28;19910;-77
2021/06/12 09:34:35;;;;;;;;;;;;;;;;;;5006287;28;19920;-77
2021/06/12 09:37:01;;;;;;;;;;;;;;;;;;5012406;28;19915;-77
2021/06/12 09:39:27;;;;;;;;;;;;;;;;;;5006053;28;19933;-77
2021/06/12 09:41:53;;;;;;;;;;;;;;;;;;5014170;28;19917;-77
2021/06/12 09:44:19;;;;;;;;;;;;;;;;;;4999567;28;20359;-77
2021/06/12 09:46:45;;;;;;;;;;;;;;;;;;5010125;28;19948;-78
2021/06/12 09:49:11;;;;;;;;;;;;;;;;;;5007983;28;19909;-75
2021/06/12 09:51:37;;;;;;;;;;;;;;;;;;5008816;28;19905;-78
2021/06/12 09:54:03;;;;;;;;;;;;;;;;;;5006624;28;19920;-77
2021/06/12 09:56:29;;;;;;;;;;;;;;;;;;5007990;28;20300;-78
2021/06/12 09:58:55;;;;;;;;;;;;;;;;;;5010791;28;19916;-75
2021/06/12 10:01:24;;;;;;;;;;;;;;;;;;5010096;28;20329;-76
2021/06/12 10:03:49;;;;;;;;;;;;;;;;;;5002267;28;19924;-76
2021/06/12 10:06:17;;;;;;;;;;;;;;;;;;5009179;28;20348;-78
2021/06/12 10:08:43;;;;;;;;;;;;;;;;;;5009768;28;19909;-78
2021/06/12 10:11:09;;;;;;;;;;;;;;;;;;5008256;28;20458;-78
2021/06/12 10:13:34;;;;;;;;;;;;;;;;;;4997193;28;19971;-78
2021/06/12 10:16:00;;;;;;;;;;;;;;;;;;5011888;28;19960;-77
2021/06/12 10:18:26;;;;;;;;;;;;;;;;;;5009983;28;20387;-76
2021/06/12 10:20:52;;;;;;;;;;;;;;;;;;5002756;28;19936;-77
2021/06/12 10:23:18;;;;;;;;;;;;;;;;;;5005615;28;19916;-78
2021/06/12 10:25:44;;;;;;;;;;;;;;;;;;5009652;28;19944;-78
2021/06/12 10:28:10;;;;;;;;;;;;;;;;;;5006019;28;19909;-76
2021/06/12 10:30:36;;;;;;;;;;;;;;;;;;5011219;28;19932;-78
2021/06/12 10:33:02;;;;;;;;;;;;;;;;;;4995102;28;20365;-76
2021/06/12 10:35:28;;;;;;;;;;;;;;;;;;4991221;28;19965;-76
2021/06/12 10:37:54;;;;;;;;;;;;;;;;;;5006296;28;19916;-75
2021/06/12 10:40:20;;;;;;;;;;;;;;;;;;5004546;28;19918;-75
2021/06/12 10:42:46;;;;;;;;;;;;;;;;;;4992579;28;19965;-75
2021/06/12 10:45:12;;;;;;;;;;;;;;;;;;5008522;28;19913;-76
2021/06/12 10:47:38;;;;;;;;;;;;;;;;;;5007012;28;19921;-76
2021/06/12 10:50:04;;;;;;;;;;;;;;;;;;5008980;28;19928;-74
2021/06/12 10:52:29;;;;;;;;;;;;;;;;;;5008216;28;19976;-74
2021/06/12 10:54:55;;;;;;;;;;;;;;;;;;5009379;28;20312;-75
2021/06/12 10:57:21;;;;;;;;;;;;;;;;;;5009873;28;19916;-75
2021/06/12 10:59:47;;;;;;;;;;;;;;;;;;5007282;28;20446;-75
2021/06/12 11:02:17;;;;;;;;;;;;;;;;;;5004715;28;19913;-77
2021/06/12 11:04:46;;;;;;;;;;;;;;;;;;4993708;28;19913;-77
2021/06/12 11:07:22;;;;;;;;;;;;;;;;;;5006893;28;19957;-77
2021/06/12 11:09:47;;;;;;;;;;;;;;;;;;5006242;28;20281;-76
2021/06/12 11:12:13;;;;;;;;;;;;;;;;;;5005436;28;20012;-76
2021/06/12 11:14:39;;;;;;;;;;;;;;;;;;4997485;28;19927;-79
2021/06/12 11:17:09;;;;;;;;;;;;;;;;;;4998575;28;19918;-79
2021/06/12 11:19:35;;;;;;;;;;;;;;;;;;4989790;28;20262;-75
2021/06/12 11:22:01;;;;;;;;;;;;;;;;;;5001241;28;19916;-79
2021/06/12 11:24:27;;;;;;;;;;;;;;;;;;5002884;28;19913;-77
2021/06/12 11:26:52;;;;;;;;;;;;;;;;;;5015298;28;19909;-78
2021/06/12 11:29:19;;;;;;;;;;;;;;;;;;5015721;28;20011;-78
2021/06/12 11:31:45;;;;;;;;;;;;;;;;;;5008581;28;19909;-79
2021/06/12 11:34:11;;;;;;;;;;;;;;;;;;4994509;28;20296;-77
2021/06/12 11:36:36;;;;;;;;;;;;;;;;;;5011347;28;19987;-76
2021/06/12 11:39:02;;;;;;;;;;;;;;;;;;5007484;28;19910;-78
2021/06/12 11:41:28;;;;;;;;;;;;;;;;;;5011009;28;20265;-79
2021/06/12 11:43:56;;;;;;;;;;;;;;;;;;5011998;28;20000;-77
2021/06/12 11:46:22;;;;;;;;;;;;;;;;;;5009507;28;19963;-76
2021/06/12 11:48:48;;;;;;;;;;;;;;;;;;5003665;28;19909;-77
2021/06/12 11:51:14;;;;;;;;;;;;;;;;;;4993590;28;19972;-77
2021/06/12 11:53:41;;;;;;;;;;;;;;;;;;5008721;28;19956;-77
2021/06/12 11:56:07;;;;;;;;;;;;;;;;;;4996398;28;19913;-77
2021/06/12 11:58:33;;;;;;;;;;;;;;;;;;5010697;28;19974;-78
2021/06/12 12:00:59;;;;;;;;;;;;;;;;;;5014021;28;19959;-78
2021/06/12 12:03:25;;;;;;;;;;;;;;;;;;4994591;28;19917;-78
2021/06/12 12:05:51;;;;;;;;;;;;;;;;;;5013424;28;19909;-78
2021/06/12 12:08:17;;;;;;;;;;;;;;;;;;5018050;28;20361;-78
2021/06/12 12:10:43;;;;;;;;;;;;;;;;;;5011630;28;19955;-78
2021/06/12 12:13:09;;;;;;;;;;;;;;;;;;5011339;28;19913;-79
2021/06/12 12:15:35;;;;;;;;;;;;;;;;;;5006686;28;20373;-77
2021/06/12 12:18:01;;;;;;;;;;;;;;;;;;5004320;28;19914;-78
2021/06/12 12:20:26;;;;;;;;;;;;;;;;;;4996665;28;19956;-78
2021/06/12 12:22:54;;;;;;;;;;;;;;;;;;5000007;28;19914;-75
2021/06/12 12:25:26;;;;;;;;;;;;;;;;;;5001594;28;19916;-77
2021/06/12 12:27:51;;;;;;;;;;;;;;;;;;4994876;28;19909;-76
2021/06/12 12:30:17;;;;;;;;;;;;;;;;;;5003945;28;19917;-76
2021/06/12 12:32:43;;;;;;;;;;;;;;;;;;5001858;28;19925;-77
2021/06/12 12:35:09;;;;;;;;;;;;;;;;;;5002093;28;19932;-77
2021/06/12 12:37:35;;;;;;;;;;;;;;;;;;5002331;28;20369;-77
2021/06/12 12:40:01;;;;;;;;;;;;;;;;;;5004289;28;19917;-77
2021/06/12 12:42:42;;;;;;;;;;;;;;;;;;5002706;28;19953;-78
2021/06/12 12:45:09;;;;;;;;;;;;;;;;;;4983796;28;20008;-81
2021/06/12 12:47:35;;;;;;;;;;;;;;;;;;4987103;28;19917;-79
2021/06/12 12:50:01;;;;;;;;;;;;;;;;;;5007763;28;19909;-80
2021/06/12 12:52:26;;;;;;;;;;;;;;;;;;5003244;28;19909;-79
2021/06/12 12:54:52;;;;;;;;;;;;;;;;;;4992140;28;20384;-79
2021/06/12 12:57:18;;;;;;;;;;;;;;;;;;5008710;28;19999;-80
2021/06/12 12:59:44;;;;;;;;;;;;;;;;;;4991703;28;19917;-78
2021/06/12 13:02:10;;;;;;;;;;;;;;;;;;5003440;28;20430;-79
2021/06/12 13:04:36;;;;;;;;;;;;;;;;;;5006243;28;19909;-81
2021/06/12 13:07:02;;;;;;;;;;;;;;;;;;5007183;28;19920;-80
2021/06/12 13:09:28;;;;;;;;;;;;;;;;;;5011696;28;19955;-80
2021/06/12 13:11:55;;;;;;;;;;;;;;;;;;4993609;28;20400;-81
2021/06/12 13:14:20;;;;;;;;;;;;;;;;;;5007447;28;19920;-80
2021/06/12 13:16:46;;;;;;;;;;;;;;;;;;4991113;28;19910;-80
2021/06/12 13:19:12;;;;;;;;;;;;;;;;;;5015656;28;19952;-80
2021/06/12 13:21:38;;;;;;;;;;;;;;;;;;4994717;28;19956;-81
2021/06/12 13:24:04;;;;;;;;;;;;;;;;;;5009007;28;19917;-80
2021/06/12 13:26:30;;;;;;;;;;;;;;;;;;5010312;28;20004;-80
2021/06/12 13:28:56;;;;;;;;;;;;;;;;;;5012444;28;19917;-82
2021/06/12 13:31:22;;;;;;;;;;;;;;;;;;5014380;28;19909;-81
2021/06/12 13:33:48;;;;;;;;;;;;;;;;;;5010567;28;20035;-81
2021/06/12 13:36:14;;;;;;;;;;;;;;;;;;5016052;28;19913;-79
2021/06/12 13:38:47;;;;;;;;;;;;;;;;;;5011956;28;20193;-80
2021/06/12 13:41:13;;;;;;;;;;;;;;;;;;5010673;28;20301;-80
2021/06/12 13:43:39;;;;;;;;;;;;;;;;;;4993272;28;19936;-81
2021/06/12 13:46:04;;;;;;;;;;;;;;;;;;5014765;28;19909;-80
2021/06/12 13:48:30;;;;;;;;;;;;;;;;;;5012428;28;19916;-81
2021/06/12 13:50:56;;;;;;;;;;;;;;;;;;4995422;28;19941;-80
2021/06/12 13:53:22;;;;;;;;;;;;;;;;;;4999700;28;19942;-84
2021/06/12 13:55:49;;;;;;;;;;;;;;;;;;5023926;28;20014;-81
2021/06/12 13:58:15;;;;;;;;;;;;;;;;;;5019389;28;19921;-79
2021/06/12 14:00:41;;;;;;;;;;;;;;;;;;5015987;28;19913;-78
2021/06/12 14:03:07;;;;;;;;;;;;;;;;;;5015423;28;19909;-79
2021/06/12 14:05:33;;;;;;;;;;;;;;;;;;5008672;28;19916;-80
2021/06/12 14:07:59;;;;;;;;;;;;;;;;;;5010839;28;19995;-79
2021/06/12 14:10:26;;;;;;;;;;;;;;;;;;5008833;28;20343;-78
2021/06/12 14:12:52;;;;;;;;;;;;;;;;;;5008986;28;19921;-79
2021/06/12 14:15:18;;;;;;;;;;;;;;;;;;5013891;28;19928;-79
2021/06/12 14:17:44;;;;;;;;;;;;;;;;;;5014539;28;20368;-78
2021/06/12 14:20:10;;;;;;;;;;;;;;;;;;5007916;28;19913;-78
2021/06/12 14:22:36;;;;;;;;;;;;;;;;;;5008623;28;19914;-78
2021/06/12 14:25:02;;;;;;;;;;;;;;;;;;5010097;28;19972;-79
2021/06/12 14:27:30;;;;;;;;;;;;;;;;;;4997427;28;20307;-79
2021/06/12 14:29:56;;;;;;;;;;;;;;;;;;4991856;28;19981;-80
2021/06/12 14:32:22;;;;;;;;;;;;;;;;;;5009581;28;20000;-79
2021/06/12 14:34:48;;;;;;;;;;;;;;;;;;5009247;28;20000;-78
2021/06/12 14:37:14;;;;;;;;;;;;;;;;;;5006878;28;19909;-79
2021/06/12 14:39:41;;;;;;;;;;;;;;;;;;5011649;28;19972;-79
2021/06/12 14:42:07;;;;;;;;;;;;;;;;;;4994264;28;19918;-79
2021/06/12 14:44:33;;;;;;;;;;;;;;;;;;4993753;28;19909;-79
2021/06/12 14:46:59;;;;;;;;;;;;;;;;;;5011758;28;20423;-78
2021/06/12 14:49:25;;;;;;;;;;;;;;;;;;4990963;28;19920;-78
2021/06/12 14:51:51;;;;;;;;;;;;;;;;;;5009011;28;19918;-78
2021/06/12 14:54:17;;;;;;;;;;;;;;;;;;5001642;28;19917;-83
2021/06/12 14:56:43;;;;;;;;;;;;;;;;;;5010725;28;19913;-80
2021/06/12 14:59:08;;;;;;;;;;;;;;;;;;5010900;28;19916;-79
2021/06/12 15:01:34;;;;;;;;;;;;;;;;;;5010870;28;19933;-79
2021/06/12 15:04:00;;;;;;;;;;;;;;;;;;5013329;28;19916;-79
2021/06/12 15:06:27;;;;;;;;;;;;;;;;;;5011751;28;19909;-80
2021/06/12 15:08:53;;;;;;;;;;;;;;;;;;5006741;28;19917;-79
2021/06/12 15:11:19;;;;;;;;;;;;;;;;;;5011504;28;19914;-82
2021/06/12 15:13:45;;;;;;;;;;;;;;;;;;5012044;28;19913;-79
2021/06/12 15:16:11;;;;;;;;;;;;;;;;;;5009965;28;19956;-80
2021/06/12 15:18:37;;;;;;;;;;;;;;;;;;4993524;28;20014;-80
2021/06/12 15:21:03;;;;;;;;;;;;;;;;;;5010756;28;19920;-80
2021/06/12 15:23:28;;;;;;;;;;;;;;;;;;5013224;28;19909;-80
2021/06/12 15:25:54;;;;;;;;;;;;;;;;;;4993644;28;20048;-79
2021/06/12 15:28:21;;;;;;;;;;;;;;;;;;5014771;28;20276;-81
2021/06/12 15:30:47;;;;;;;;;;;;;;;;;;4998827;28;20463;-79
2021/06/12 15:33:13;;;;;;;;;;;;;;;;;;5008585;28;19910;-80
2021/06/12 15:35:39;;;;;;;;;;;;;;;;;;5013142;28;19963;-82
2021/06/12 15:38:05;;;;;;;;;;;;;;;;;;5008453;28;19933;-81
2021/06/12 15:40:31;;;;;;;;;;;;;;;;;;4998435;28;20037;-80
2021/06/12 15:42:57;;;;;;;;;;;;;;;;;;4993558;28;20368;-79
2021/06/12 15:45:22;;;;;;;;;;;;;;;;;;4996978;28;19916;-79
2021/06/12 15:47:48;;;;;;;;;;;;;;;;;;5006168;28;20363;-79
2021/06/12 15:50:14;;;;;;;;;;;;;;;;;;5007731;28;19909;-78
2021/06/12 15:52:40;;;;;;;;;;;;;;;;;;5009151;28;20288;-78
2021/06/12 15:55:06;;;;;;;;;;;;;;;;;;5013701;28;19917;-78
2021/06/12 15:57:32;;;;;;;;;;;;;;;;;;4993042;28;19914;-78
2021/06/12 15:59:58;;;;;;;;;;;;;;;;;;5013858;28;19909;-78
2021/06/12 16:02:24;;;;;;;;;;;;;;;;;;5005634;28;19913;-79
2021/06/12 16:04:50;;;;;;;;;;;;;;;;;;5006825;28;19913;-78
2021/06/12 16:07:16;;;;;;;;;;;;;;;;;;4993734;28;19927;-79
2021/06/12 16:09:42;;;;;;;;;;;;;;;;;;5012279;28;19996;-79
2021/06/12 16:12:08;;;;;;;;;;;;;;;;;;5008815;28;20014;-79
2021/06/12 16:14:34;;;;;;;;;;;;;;;;;;5008260;28;20136;-78
2021/06/12 16:17:00;;;;;;;;;;;;;;;;;;5017460;28;19920;-78
2021/06/12 16:19:30;;;;;;;;;;;;;;;;;;5012015;28;20196;-79
2021/06/12 16:21:56;;;;;;;;;;;;;;;;;;5004176;28;19974;-79
2021/06/12 16:24:22;;;;;;;;;;;;;;;;;;5009632;28;19910;-80
2021/06/12 16:26:48;;;;;;;;;;;;;;;;;;5006744;28;19909;-79
2021/06/12 16:29:14;;;;;;;;;;;;;;;;;;5013053;28;19917;-81
2021/06/12 16:31:40;;;;;;;;;;;;;;;;;;5014162;28;20414;-80
2021/06/12 16:34:05;;;;;;;;;;;;;;;;;;5009467;28;19916;-80
2021/06/12 16:36:33;;;;;;;;;;;;;;;;;;5004884;28;19917;-78